createdAt,value
2022-11-09T00:00:06.040Z,13.56
2022-11-09T00:02:32.541Z,13.67
2022-11-09T00:04:58.998Z,13.70
2022-11-09T00:07:25.460Z,13.83
2022-11-09T00:09:51.972Z,13.84
2022-11-09T00:12:18.471Z,13.81
2022-11-09T00:14:44.933Z,13.64
2022-11-09T00:17:11.441Z,13.61
2022-11-09T00:19:37.916Z,13.76
2022-11-09T00:22:04.403Z,13.60
2022-11-09T00:24:30.871Z,13.71
2022-11-09T00:26:57.346Z,14.07
2022-11-09T00:29:23.804Z,14.35
2022-11-09T00:31:50.483Z,13.99
2022-11-09T00:34:16.992Z,13.78
2022-11-09T00:36:43.508Z,13.88
2022-11-09T00:39:09.951Z,13.71
2022-11-09T00:41:36.416Z,13.95
2022-11-09T00:44:03.077Z,14.09
2022-11-09T00:46:29.735Z,14.19
2022-11-09T00:48:56.444Z,14.26
2022-11-09T00:51:22.956Z,14.46
2022-11-09T00:53:53.710Z,14.53
2022-11-09T00:56:20.923Z,14.49
2022-11-09T00:58:47.412Z,14.76
2022-11-09T01:01:16.347Z,14.56
2022-11-09T01:03:44.330Z,14.33
2022-11-09T01:06:16.038Z,14.30
2022-11-09T01:08:42.552Z,14.48
2022-11-09T01:11:10.112Z,14.37
2022-11-09T01:13:37.969Z,14.59
2022-11-09T01:16:07.505Z,14.46
2022-11-09T01:18:34.112Z,14.56
2022-11-09T01:21:03.031Z,15.08
2022-11-09T01:23:29.511Z,15.06
2022-11-09T01:26:00.518Z,15.13
2022-11-09T01:28:27.026Z,15.22
2022-11-09T01:30:54.027Z,14.90
2022-11-09T01:33:21.445Z,15.34
2022-11-09T01:35:48.147Z,15.34
2022-11-09T01:38:14.576Z,15.21
2022-11-09T01:40:41.133Z,15.27
2022-11-09T01:43:15.142Z,15.28
2022-11-09T01:45:45.504Z,15.16
2022-11-09T01:48:30.696Z,14.99
2022-11-09T01:51:01.451Z,15.13
2022-11-09T01:53:31.027Z,15.03
2022-11-09T01:56:00.733Z,15.05
2022-11-09T01:58:54.767Z,14.61
2022-11-09T02:01:21.762Z,14.96
2022-11-09T02:04:07.308Z,14.92
2022-11-09T02:06:35.421Z,15.00
2022-11-09T02:09:34.602Z,15.13
2022-11-09T02:12:01.268Z,14.92
2022-11-09T02:14:29.363Z,15.26
2022-11-09T02:16:56.429Z,15.18
2022-11-09T02:19:22.892Z,15.21
2022-11-09T02:21:50.156Z,14.82
2022-11-09T02:24:17.964Z,14.95
2022-11-09T02:26:51.022Z,15.17
2022-11-09T02:29:21.734Z,15.11
2022-11-09T02:31:56.063Z,15.23
2022-11-09T02:34:24.505Z,14.63
2022-11-09T02:36:51.106Z,14.81
2022-11-09T02:39:20.768Z,15.36
2022-11-09T02:41:59.815Z,15.40
2022-11-09T02:44:29.499Z,15.29
2022-11-09T02:46:55.992Z,15.54
2022-11-09T02:49:22.491Z,15.45
2022-11-09T02:51:48.992Z,15.48
2022-11-09T02:54:15.532Z,15.23
2022-11-09T02:56:41.997Z,15.64
2022-11-09T02:59:08.860Z,15.61
2022-11-09T03:01:35.584Z,15.66
2022-11-09T03:04:02.088Z,15.67
2022-11-09T03:06:34.548Z,15.07
2022-11-09T03:09:09.838Z,15.63
2022-11-09T03:11:37.312Z,15.93
2022-11-09T03:14:04.592Z,15.68
2022-11-09T03:16:31.138Z,15.83
2022-11-09T03:18:58.081Z,15.52
2022-11-09T03:21:25.015Z,15.26
2022-11-09T03:23:52.176Z,15.20
2022-11-09T03:26:18.678Z,15.99
2022-11-09T03:28:45.185Z,15.65
2022-11-09T03:31:11.733Z,15.26
2022-11-09T03:33:38.327Z,15.81
2022-11-09T03:36:05.386Z,16.01
2022-11-09T03:38:31.908Z,16.26
2022-11-09T03:41:02.765Z,16.43
2022-11-09T03:43:30.329Z,16.16
2022-11-09T03:45:57.065Z,16.24
2022-11-09T03:48:24.166Z,16.40
2022-11-09T03:50:50.831Z,16.06
2022-11-09T03:53:18.152Z,16.30
2022-11-09T03:55:44.944Z,16.21
2022-11-09T03:58:13.141Z,16.45
2022-11-09T04:00:39.905Z,16.37
2022-11-09T04:03:06.450Z,16.17
2022-11-09T04:05:32.941Z,16.14
2022-11-09T04:07:59.772Z,15.99
2022-11-09T04:10:26.954Z,16.24
2022-11-09T04:12:53.769Z,16.29
2022-11-09T04:15:20.736Z,15.89
2022-11-09T04:17:58.215Z,15.84
2022-11-09T04:20:26.514Z,15.76
2022-11-09T04:22:57.668Z,15.92
2022-11-09T04:25:25.866Z,15.74
2022-11-09T04:27:59.609Z,15.72
2022-11-09T04:30:30.228Z,15.89
2022-11-09T04:32:57.878Z,15.56
2022-11-09T04:35:25.776Z,15.67
2022-11-09T04:38:01.566Z,15.62
2022-11-09T04:40:31.932Z,15.91
2022-11-09T04:43:03.048Z,15.93
2022-11-09T04:45:29.575Z,15.41
2022-11-09T04:48:04.497Z,15.39
2022-11-09T04:50:31.521Z,15.75
2022-11-09T04:53:24.643Z,15.80
2022-11-09T04:55:51.679Z,15.57
2022-11-09T04:58:23.755Z,15.97
2022-11-09T05:00:51.867Z,15.52
2022-11-09T05:03:18.698Z,15.25
2022-11-09T05:05:48.288Z,15.60
2022-11-09T05:08:15.395Z,15.84
2022-11-09T05:10:42.050Z,15.76
2022-11-09T05:13:11.139Z,15.43
2022-11-09T05:15:37.820Z,15.61
2022-11-09T05:18:05.242Z,15.63
2022-11-09T05:20:31.978Z,15.60
2022-11-09T05:23:18.633Z,15.30
2022-11-09T05:25:46.230Z,15.34
2022-11-09T05:28:13.397Z,15.08
2022-11-09T05:30:40.001Z,15.21
2022-11-09T05:33:06.471Z,15.05
2022-11-09T05:35:33.439Z,14.96
2022-11-09T05:37:59.921Z,15.02
2022-11-09T05:40:26.430Z,15.22
2022-11-09T05:42:52.984Z,15.11
2022-11-09T05:48:06.625Z,15.63
2022-11-09T05:50:33.131Z,15.09
2022-11-09T05:53:00.506Z,15.12
2022-11-09T05:55:27.235Z,15.12
2022-11-09T05:57:54.473Z,15.40
2022-11-09T06:00:21.385Z,15.30
2022-11-09T06:02:47.910Z,15.12
2022-11-09T06:05:14.500Z,15.09
2022-11-09T06:07:40.942Z,15.26
2022-11-09T06:10:08.621Z,15.42
2022-11-09T06:12:35.451Z,15.32
2022-11-09T06:15:01.910Z,15.14
2022-11-09T06:17:28.493Z,15.28
2022-11-09T06:19:55.028Z,15.17
2022-11-09T06:22:21.532Z,15.52
2022-11-09T06:24:47.990Z,15.09
2022-11-09T06:27:14.653Z,15.33
2022-11-09T06:29:41.139Z,15.36
2022-11-09T06:32:07.643Z,15.49
2022-11-09T06:34:34.156Z,15.25
2022-11-09T06:37:00.669Z,15.46
2022-11-09T06:39:27.139Z,15.52
2022-11-09T06:41:53.600Z,15.18
2022-11-09T06:44:20.098Z,15.31
2022-11-09T06:46:46.583Z,15.56
2022-11-09T06:49:13.114Z,15.39
2022-11-09T06:51:39.577Z,15.72
2022-11-09T06:54:06.038Z,15.32
2022-11-09T06:56:32.511Z,15.52
2022-11-09T06:58:58.975Z,15.55
2022-11-09T07:01:28.590Z,15.59
2022-11-09T07:03:55.339Z,15.52
2022-11-09T07:06:22.366Z,15.32
2022-11-09T07:08:48.917Z,15.60
2022-11-09T07:11:16.281Z,15.93
2022-11-09T07:13:42.915Z,15.30
2022-11-09T07:16:11.829Z,15.72
2022-11-09T07:18:38.663Z,15.80
2022-11-09T07:21:08.921Z,16.08
2022-11-09T07:23:39.905Z,15.78
2022-11-09T07:26:06.634Z,15.92
2022-11-09T07:28:33.467Z,16.03
2022-11-09T07:31:00.424Z,15.70
2022-11-09T07:33:30.187Z,15.75
2022-11-09T07:35:58.843Z,15.44
2022-11-09T07:38:25.351Z,15.70
2022-11-09T07:40:51.783Z,15.85
2022-11-09T07:43:19.053Z,15.98
2022-11-09T07:45:46.290Z,16.19
2022-11-09T07:48:14.300Z,16.25
2022-11-09T07:50:41.253Z,15.80
2022-11-09T07:53:08.830Z,15.89
2022-11-09T07:55:35.681Z,15.82
2022-11-09T07:58:08.439Z,15.87
2022-11-09T08:00:37.247Z,16.09
2022-11-09T08:03:04.380Z,15.85
2022-11-09T08:05:31.275Z,15.77
2022-11-09T08:07:59.597Z,15.91
2022-11-09T08:10:27.521Z,16.11
2022-11-09T08:12:59.277Z,15.75
2022-11-09T08:15:27.268Z,15.54
2022-11-09T08:17:54.060Z,15.56
2022-11-09T08:20:20.976Z,15.55
2022-11-09T08:22:48.295Z,15.64
2022-11-09T08:25:15.140Z,15.67
2022-11-09T08:27:42.178Z,15.37
2022-11-09T08:30:29.394Z,15.42
2022-11-09T08:32:56.084Z,15.09
2022-11-09T08:35:24.260Z,15.21
2022-11-09T08:37:52.582Z,15.22
2022-11-09T08:40:21.635Z,15.38
2022-11-09T08:42:48.481Z,15.17
2022-11-09T08:45:15.544Z,15.31
2022-11-09T08:47:42.403Z,15.62
2022-11-09T08:50:10.254Z,15.45
2022-11-09T08:52:36.809Z,15.64
2022-11-09T08:55:03.956Z,15.25
2022-11-09T08:57:31.303Z,15.71
2022-11-09T08:59:57.903Z,15.82
2022-11-09T09:02:24.663Z,15.37
2022-11-09T09:04:51.147Z,15.82
2022-11-09T09:07:17.787Z,16.30
2022-11-09T09:09:45.548Z,16.34
2022-11-09T09:12:12.066Z,16.77
2022-11-09T09:14:38.547Z,17.26
2022-11-09T09:17:05.044Z,17.93
2022-11-09T09:19:32.023Z,17.74
2022-11-09T09:21:59.278Z,17.81
2022-11-09T09:24:26.815Z,17.34
2022-11-09T09:26:53.301Z,17.06
2022-11-09T09:29:19.834Z,16.73
2022-11-09T09:31:46.339Z,17.13
2022-11-09T09:34:13.607Z,16.77
2022-11-09T09:36:44.700Z,17.05
2022-11-09T09:39:14.131Z,17.12
2022-11-09T09:42:00.883Z,16.87
2022-11-09T09:44:36.775Z,17.55
2022-11-09T09:47:27.974Z,17.69
2022-11-09T09:50:01.306Z,17.27
2022-11-09T09:53:22.061Z,17.44
2022-11-09T09:55:46.389Z,17.96
2022-11-09T09:58:26.129Z,17.87
2022-11-09T10:00:58.410Z,17.89
2022-11-09T10:03:25.326Z,17.95
2022-11-09T10:06:12.822Z,18.04
2022-11-09T10:08:57.636Z,17.77
2022-11-09T10:11:51.332Z,17.93
2022-11-09T10:14:40.345Z,18.08
2022-11-09T10:17:21.360Z,18.16
2022-11-09T10:20:06.305Z,18.85
2022-11-09T10:22:55.170Z,18.86
2022-11-09T10:25:57.618Z,19.32
2022-11-09T10:28:15.723Z,19.73
2022-11-09T10:30:42.661Z,20.44
2022-11-09T10:33:14.355Z,20.14
2022-11-09T10:35:54.258Z,19.14
2022-11-09T10:38:29.461Z,20.00
2022-11-09T10:41:18.234Z,19.82
2022-11-09T10:43:44.825Z,20.12
2022-11-09T10:46:11.398Z,20.22
2022-11-09T10:48:39.721Z,20.49
2022-11-09T10:51:06.764Z,20.04
2022-11-09T10:53:34.087Z,20.84
2022-11-09T10:56:20.790Z,21.23
2022-11-09T10:58:51.327Z,20.56
2022-11-09T11:01:20.633Z,19.77
2022-11-09T11:03:53.859Z,19.89
2022-11-09T11:06:23.581Z,19.54
2022-11-09T11:08:57.340Z,19.47
2022-11-09T11:11:35.696Z,19.60
2022-11-09T11:14:23.420Z,18.79
2022-11-09T11:16:52.777Z,19.17
2022-11-09T11:19:36.208Z,19.90
2022-11-09T11:22:11.926Z,19.80
2022-11-09T11:25:02.054Z,19.26
2022-11-09T11:27:30.255Z,19.03
2022-11-09T11:30:22.848Z,17.86
2022-11-09T11:32:50.853Z,18.04
2022-11-09T11:35:21.035Z,18.14
2022-11-09T11:38:09.933Z,18.14
2022-11-09T11:41:40.486Z,17.77
2022-11-09T11:44:25.247Z,17.51
2022-11-09T11:47:09.488Z,17.45
2022-11-09T11:49:38.734Z,17.14
2022-11-09T11:52:37.149Z,17.60
2022-11-09T11:55:19.110Z,17.93
2022-11-09T11:58:41.014Z,18.00
2022-11-09T12:01:10.561Z,18.28
2022-11-09T12:03:50.327Z,18.50
2022-11-09T12:06:47.174Z,19.09
2022-11-09T12:09:24.434Z,19.01
2022-11-09T12:12:09.201Z,18.88
2022-11-09T12:14:53.299Z,18.64
2022-11-09T12:17:30.370Z,18.98
2022-11-09T12:20:24.689Z,18.45
2022-11-09T12:23:25.129Z,18.41
2022-11-09T12:26:23.889Z,18.75
2022-11-09T12:29:04.275Z,18.55
2022-11-09T12:31:46.094Z,18.84
2022-11-09T12:34:24.921Z,19.49
2022-11-09T12:36:57.596Z,19.46
2022-11-09T12:39:35.071Z,19.99
2022-11-09T12:42:11.267Z,19.96
2022-11-09T12:44:46.335Z,19.62
2022-11-09T12:47:17.213Z,19.58
2022-11-09T12:49:46.089Z,19.35
2022-11-09T12:52:30.225Z,18.52
2022-11-09T12:55:00.985Z,18.00
2022-11-09T12:57:29.757Z,18.23
2022-11-09T12:59:58.874Z,18.60
2022-11-09T13:02:31.799Z,18.49
2022-11-09T13:05:01.651Z,17.98
2022-11-09T13:07:32.927Z,17.86
2022-11-09T13:10:02.197Z,18.09
2022-11-09T13:12:42.589Z,18.25
2022-11-09T13:15:22.246Z,18.00
2022-11-09T13:17:58.983Z,17.87
2022-11-09T13:20:53.820Z,18.03
2022-11-09T13:23:48.124Z,18.21
2022-11-09T13:26:32.776Z,17.73
2022-11-09T13:29:17.848Z,17.55
2022-11-09T13:32:12.513Z,17.83
2022-11-09T13:34:51.172Z,17.71
2022-11-09T13:37:42.566Z,17.67
2022-11-09T13:40:30.781Z,17.94
2022-11-09T13:43:12.299Z,17.73
2022-11-09T13:45:50.514Z,17.98
2022-11-09T13:48:32.198Z,17.80
2022-11-09T13:51:02.027Z,17.73
2022-11-09T13:53:38.984Z,17.94
2022-11-09T13:56:30.431Z,17.81
2022-11-09T13:59:11.061Z,17.52
2022-11-09T14:01:50.314Z,17.60
2022-11-09T14:04:27.896Z,17.64
2022-11-09T14:07:19.198Z,17.59
2022-11-09T14:10:06.961Z,17.34
2022-11-09T14:12:41.949Z,17.64
2022-11-09T14:15:38.701Z,17.67
2022-11-09T14:18:26.594Z,18.19
2022-11-09T14:21:11.284Z,17.74
2022-11-09T14:23:37.803Z,17.65
2022-11-09T14:26:08.565Z,17.67
2022-11-09T14:28:36.482Z,17.55
2022-11-09T14:31:03.122Z,17.39
2022-11-09T14:33:34.302Z,17.77
2022-11-09T14:36:02.485Z,17.66
2022-11-09T14:38:35.447Z,17.53
2022-11-09T14:41:02.799Z,16.96
2022-11-09T14:43:43.013Z,16.77
2022-11-09T14:46:19.007Z,16.80
2022-11-09T14:48:56.047Z,17.09
2022-11-09T14:51:30.166Z,16.61
2022-11-09T14:53:59.127Z,16.39
2022-11-09T14:56:25.979Z,16.17
2022-11-09T14:58:53.210Z,16.16
2022-11-09T15:01:20.105Z,16.28
2022-11-09T15:04:11.137Z,16.27
2022-11-09T15:06:50.927Z,16.23
2022-11-09T15:09:23.127Z,16.12
2022-11-09T15:11:51.021Z,16.37
2022-11-09T15:14:17.514Z,16.19
2022-11-09T15:16:45.162Z,16.21
2022-11-09T15:19:30.011Z,16.44
2022-11-09T15:21:56.594Z,16.79
2022-11-09T15:24:25.801Z,16.35
2022-11-09T15:26:53.203Z,16.66
2022-11-09T15:29:30.719Z,16.60
2022-11-09T15:32:06.517Z,16.54
2022-11-09T15:34:57.386Z,16.25
2022-11-09T15:37:31.953Z,16.19
2022-11-09T15:39:58.904Z,16.27
2022-11-09T15:42:26.484Z,16.29
2022-11-09T15:44:57.921Z,16.40
2022-11-09T15:47:31.555Z,16.62
2022-11-09T15:50:00.405Z,16.38
2022-11-09T15:52:27.737Z,16.26
2022-11-09T15:54:54.295Z,16.34
2022-11-09T15:57:21.741Z,16.16
2022-11-09T15:59:51.137Z,16.32
2022-11-09T16:02:19.041Z,16.21
2022-11-09T16:04:45.515Z,15.83
2022-11-09T16:07:16.507Z,16.31
2022-11-09T16:09:43.600Z,15.94
2022-11-09T16:12:10.241Z,16.41
2022-11-09T16:14:37.155Z,16.39
2022-11-09T16:17:04.624Z,16.37
2022-11-09T16:19:31.137Z,16.09
2022-11-09T16:21:58.536Z,16.20
2022-11-09T16:24:25.003Z,16.46
2022-11-09T16:26:53.411Z,16.12
2022-11-09T16:29:22.453Z,16.25
2022-11-09T16:31:51.861Z,16.07
2022-11-09T16:34:19.094Z,16.27
2022-11-09T16:36:50.837Z,16.40
2022-11-09T16:39:19.397Z,16.53
2022-11-09T16:41:48.905Z,16.35
2022-11-09T16:44:20.019Z,16.34
2022-11-09T16:46:47.629Z,16.67
2022-11-09T16:49:14.245Z,16.71
2022-11-09T16:51:40.982Z,16.66
2022-11-09T16:54:07.630Z,16.49
2022-11-09T16:56:35.271Z,16.32
2022-11-09T16:59:01.777Z,16.46
2022-11-09T17:01:28.354Z,16.49
2022-11-09T17:03:56.417Z,16.50
2022-11-09T17:06:22.997Z,16.67
2022-11-09T17:08:49.580Z,16.51
2022-11-09T17:11:17.282Z,16.48
2022-11-09T17:13:43.765Z,16.27
2022-11-09T17:16:12.280Z,16.56
2022-11-09T17:18:39.518Z,16.48
2022-11-09T17:21:11.202Z,16.39
2022-11-09T17:23:38.385Z,16.65
2022-11-09T17:26:06.479Z,16.67
2022-11-09T17:28:35.964Z,16.77
2022-11-09T17:31:14.855Z,16.63
2022-11-09T17:33:41.503Z,16.63
2022-11-09T17:36:11.350Z,16.75
2022-11-09T17:38:38.796Z,16.73
2022-11-09T17:41:08.331Z,16.61
2022-11-09T17:43:36.885Z,16.28
2022-11-09T17:46:09.421Z,16.30
2022-11-09T17:48:37.323Z,16.37
2022-11-09T17:51:05.568Z,16.14
2022-11-09T17:53:32.464Z,16.30
2022-11-09T17:55:59.161Z,16.41
2022-11-09T17:58:26.041Z,16.18
2022-11-09T18:00:52.706Z,16.38
2022-11-09T18:03:19.337Z,16.38
2022-11-09T18:05:46.405Z,16.50
2022-11-09T18:08:14.338Z,15.81
2022-11-09T18:10:43.789Z,15.77
2022-11-09T18:13:10.492Z,15.94
2022-11-09T18:15:37.653Z,15.88
2022-11-09T18:18:05.046Z,16.06
2022-11-09T18:20:32.320Z,15.96
2022-11-09T18:22:58.835Z,16.09
2022-11-09T18:25:25.315Z,15.98
2022-11-09T18:27:52.489Z,15.96
2022-11-09T18:30:19.083Z,15.98
2022-11-09T18:32:45.578Z,15.83
2022-11-09T18:35:12.073Z,15.73
2022-11-09T18:37:39.305Z,15.97
2022-11-09T18:40:06.959Z,15.82
2022-11-09T18:42:33.619Z,15.98
2022-11-09T18:45:00.147Z,15.76
2022-11-09T18:47:26.796Z,15.86
2022-11-09T18:49:53.327Z,15.81
2022-11-09T18:52:19.876Z,15.56
2022-11-09T18:54:46.428Z,15.90
2022-11-09T18:57:18.621Z,15.72
2022-11-09T18:59:46.268Z,15.65
2022-11-09T19:02:13.856Z,15.63
2022-11-09T19:04:41.021Z,15.60
2022-11-09T19:07:07.590Z,15.90
2022-11-09T19:09:38.582Z,15.76
2022-11-09T19:12:10.762Z,15.74
2022-11-09T19:14:41.085Z,15.81
2022-11-09T19:17:12.939Z,15.64
2022-11-09T19:19:40.210Z,15.54
2022-11-09T19:22:16.821Z,15.72
2022-11-09T19:24:43.952Z,15.68
2022-11-09T19:27:10.519Z,15.62
2022-11-09T19:29:37.313Z,15.84
2022-11-09T19:32:04.361Z,15.68
2022-11-09T19:34:31.201Z,15.90
2022-11-09T19:36:57.940Z,15.69
2022-11-09T19:39:27.266Z,15.79
2022-11-09T19:41:56.412Z,15.54
2022-11-09T19:44:22.955Z,15.77
2022-11-09T19:46:49.515Z,15.45
2022-11-09T19:49:16.002Z,15.58
2022-11-09T19:51:42.549Z,15.58
2022-11-09T19:54:10.722Z,15.66
2022-11-09T19:56:37.217Z,15.51
2022-11-09T19:59:04.380Z,15.55
2022-11-09T20:01:31.666Z,15.75
2022-11-09T20:04:00.293Z,15.75
2022-11-09T20:06:27.721Z,15.84
2022-11-09T20:08:54.244Z,15.47
2022-11-09T20:11:41.323Z,15.60
2022-11-09T20:14:09.279Z,15.71
2022-11-09T20:16:37.084Z,15.65
2022-11-09T20:19:04.663Z,15.66
2022-11-09T20:21:31.532Z,15.66
2022-11-09T20:23:58.237Z,15.37
2022-11-09T20:26:24.760Z,15.48
2022-11-09T20:28:55.048Z,14.92
2022-11-09T20:31:22.643Z,15.19
2022-11-09T20:33:50.131Z,14.73
2022-11-09T20:36:18.565Z,14.50
2022-11-09T20:38:45.791Z,14.41
2022-11-09T20:41:12.780Z,14.33
2022-11-09T20:43:39.269Z,14.45
2022-11-09T20:46:08.799Z,14.58
2022-11-09T20:49:05.516Z,14.62
2022-11-09T20:51:23.864Z,14.47
2022-11-09T20:53:50.871Z,14.51
2022-11-09T20:56:18.754Z,14.55
2022-11-09T20:58:45.515Z,14.47
2022-11-09T21:01:15.156Z,14.51
2022-11-09T21:03:42.877Z,14.91
2022-11-09T21:06:10.731Z,14.90
2022-11-09T21:08:37.651Z,14.12
2022-11-09T21:11:06.229Z,14.06
2022-11-09T21:13:33.050Z,13.83
2022-11-09T21:16:12.203Z,13.96
2022-11-09T21:18:39.416Z,14.30
2022-11-09T21:21:15.262Z,14.23
2022-11-09T21:24:00.684Z,14.37
2022-11-09T21:26:45.792Z,14.32
2022-11-09T21:29:33.322Z,14.45
2022-11-09T21:32:00.042Z,14.29
2022-11-09T21:34:28.705Z,13.90
2022-11-09T21:36:56.986Z,13.98
2022-11-09T21:39:24.221Z,14.03
2022-11-09T21:41:50.701Z,14.05
2022-11-09T21:44:17.322Z,13.93
2022-11-09T21:46:44.160Z,13.80
2022-11-09T21:49:12.824Z,13.54
2022-11-09T21:51:40.108Z,13.74
2022-11-09T21:54:07.858Z,13.78
2022-11-09T21:56:34.476Z,13.72
2022-11-09T21:59:00.991Z,13.77
2022-11-09T22:01:27.465Z,13.81
2022-11-09T22:03:54.147Z,13.77
2022-11-09T22:06:21.091Z,13.54
2022-11-09T22:08:47.761Z,13.63
2022-11-09T22:11:43.958Z,13.89
2022-11-09T22:14:33.626Z,13.65
2022-11-09T22:17:00.716Z,13.78
2022-11-09T22:19:46.448Z,13.79
2022-11-09T22:22:14.013Z,13.84
2022-11-09T22:24:40.836Z,13.66
2022-11-09T22:27:07.455Z,13.75
2022-11-09T22:29:34.039Z,13.42
2022-11-09T22:32:00.636Z,13.45
2022-11-09T22:34:27.368Z,13.75
2022-11-09T22:36:53.947Z,13.60
2022-11-09T22:39:20.516Z,13.62
2022-11-09T22:41:47.054Z,13.82
2022-11-09T22:44:13.627Z,13.51
2022-11-09T22:46:40.162Z,13.63
2022-11-09T22:49:08.316Z,13.64
2022-11-09T22:51:35.066Z,13.80
2022-11-09T22:54:01.682Z,13.55
2022-11-09T22:56:28.171Z,13.63
2022-11-09T22:58:54.711Z,13.54
2022-11-09T23:01:21.544Z,13.32
2022-11-09T23:03:48.046Z,13.33
2022-11-09T23:06:19.119Z,13.41
2022-11-09T23:08:46.271Z,13.32
2022-11-09T23:11:19.088Z,13.15
2022-11-09T23:13:49.136Z,13.43
2022-11-09T23:16:15.874Z,13.26
2022-11-09T23:18:55.071Z,13.32
2022-11-09T23:21:27.496Z,13.20
2022-11-09T23:23:56.958Z,13.43
2022-11-09T23:26:24.360Z,13.22
2022-11-09T23:28:51.114Z,13.49
2022-11-09T23:31:24.838Z,12.89
2022-11-09T23:33:54.275Z,13.17
2022-11-09T23:36:25.763Z,13.17
2022-11-09T23:38:52.856Z,12.69
2022-11-09T23:41:20.726Z,12.99
2022-11-09T23:43:49.527Z,13.07
2022-11-09T23:46:17.829Z,12.74
2022-11-09T23:48:44.482Z,12.62
2022-11-09T23:51:11.447Z,12.67
2022-11-09T23:53:38.451Z,12.19
2022-11-09T23:56:10.881Z,12.61
2022-11-09T23:58:37.837Z,12.57
